sensor_id;sensor_type;location;lat;lon;timestamp;P1;durP1;ratioP1;P2;durP2;ratioP2
54408;SDS011;40315;48.620;9.828;2023-02-12T00:01:09;26.70;;;16.65;;
54408;SDS011;40315;48.620;9.828;2023-02-12T00:03:37;27.65;;;16.70;;
54408;SDS011;40315;48.620;9.828;2023-02-12T00:06:05;27.98;;;16.70;;
54408;SDS011;40315;48.620;9.828;2023-02-12T00:08:36;26.02;;;15.80;;
54408;SDS011;40315;48.620;9.828;2023-02-12T00:11:08;26.92;;;16.67;;
54408;SDS011;40315;48.620;9.828;2023-02-12T00:13:38;27.40;;;16.25;;
54408;SDS011;40315;48.620;9.828;2023-02-12T00:16:06;26.17;;;16.63;;
54408;SDS011;40315;48.620;9.828;2023-02-12T00:18:34;28.63;;;17.45;;
54408;SDS011;40315;48.620;9.828;2023-02-12T00:21:01;31.45;;;18.45;;
54408;SDS011;40315;48.620;9.828;2023-02-12T00:23:29;28.77;;;18.20;;
54408;SDS011;40315;48.620;9.828;2023-02-12T00:25:58;31.08;;;18.23;;
54408;SDS011;40315;48.620;9.828;2023-02-12T00:28:27;35.50;;;18.75;;
54408;SDS011;40315;48.620;9.828;2023-02-12T00:30:54;31.20;;;18.90;;
54408;SDS011;40315;48.620;9.828;2023-02-12T00:33:21;29.00;;;17.38;;
54408;SDS011;40315;48.620;9.828;2023-02-12T00:35:54;31.40;;;19.38;;
54408;SDS011;40315;48.620;9.828;2023-02-12T00:38:21;34.20;;;19.50;;
54408;SDS011;40315;48.620;9.828;2023-02-12T00:40:48;28.60;;;17.95;;
54408;SDS011;40315;48.620;9.828;2023-02-12T00:43:17;31.15;;;18.67;;
54408;SDS011;40315;48.620;9.828;2023-02-12T00:45:44;29.67;;;18.27;;
54408;SDS011;40315;48.620;9.828;2023-02-12T00:48:11;30.05;;;17.90;;
54408;SDS011;40315;48.620;9.828;2023-02-12T00:50:40;26.88;;;17.60;;
54408;SDS011;40315;48.620;9.828;2023-02-12T00:53:09;30.55;;;19.65;;
54408;SDS011;40315;48.620;9.828;2023-02-12T00:55:36;28.05;;;18.00;;
54408;SDS011;40315;48.620;9.828;2023-02-12T00:58:03;31.00;;;18.70;;
54408;SDS011;40315;48.620;9.828;2023-02-12T01:00:33;32.97;;;19.58;;
54408;SDS011;40315;48.620;9.828;2023-02-12T01:03:01;37.70;;;21.13;;
54408;SDS011;40315;48.620;9.828;2023-02-12T01:05:32;32.15;;;19.63;;
54408;SDS011;40315;48.620;9.828;2023-02-12T01:08:01;32.00;;;19.00;;
54408;SDS011;40315;48.620;9.828;2023-02-12T01:10:29;29.33;;;19.08;;
54408;SDS011;40315;48.620;9.828;2023-02-12T01:12:56;26.85;;;17.15;;
54408;SDS011;40315;48.620;9.828;2023-02-12T01:15:26;33.60;;;19.23;;
54408;SDS011;40315;48.620;9.828;2023-02-12T01:17:54;34.85;;;20.55;;
54408;SDS011;40315;48.620;9.828;2023-02-12T01:20:22;33.70;;;20.08;;
54408;SDS011;40315;48.620;9.828;2023-02-12T01:22:51;31.75;;;19.60;;
54408;SDS011;40315;48.620;9.828;2023-02-12T01:25:18;31.13;;;19.25;;
54408;SDS011;40315;48.620;9.828;2023-02-12T01:27:45;31.75;;;19.30;;
54408;SDS011;40315;48.620;9.828;2023-02-12T01:30:13;31.75;;;19.65;;
54408;SDS011;40315;48.620;9.828;2023-02-12T01:32:41;29.67;;;18.45;;
54408;SDS011;40315;48.620;9.828;2023-02-12T01:35:11;29.30;;;17.90;;
54408;SDS011;40315;48.620;9.828;2023-02-12T01:37:39;29.23;;;18.08;;
54408;SDS011;40315;48.620;9.828;2023-02-12T01:40:07;31.25;;;19.45;;
54408;SDS011;40315;48.620;9.828;2023-02-12T01:42:35;27.85;;;18.42;;
54408;SDS011;40315;48.620;9.828;2023-02-12T01:48:36;26.55;;;16.35;;
54408;SDS011;40315;48.620;9.828;2023-02-12T01:51:07;25.73;;;17.30;;
54408;SDS011;40315;48.620;9.828;2023-02-12T01:53:38;29.23;;;18.25;;
54408;SDS011;40315;48.620;9.828;2023-02-12T01:56:10;25.77;;;15.77;;
54408;SDS011;40315;48.620;9.828;2023-02-12T01:58:38;27.95;;;17.60;;
54408;SDS011;40315;48.620;9.828;2023-02-12T02:03:45;29.25;;;16.33;;
54408;SDS011;40315;48.620;9.828;2023-02-12T02:06:18;28.38;;;17.65;;
54408;SDS011;40315;48.620;9.828;2023-02-12T02:08:48;26.50;;;17.02;;
54408;SDS011;40315;48.620;9.828;2023-02-12T02:11:16;31.20;;;17.80;;
54408;SDS011;40315;48.620;9.828;2023-02-12T02:14:04;28.15;;;17.58;;
54408;SDS011;40315;48.620;9.828;2023-02-12T02:17:03;30.73;;;18.70;;
54408;SDS011;40315;48.620;9.828;2023-02-12T02:19:49;29.38;;;17.70;;
54408;SDS011;40315;48.620;9.828;2023-02-12T02:22:37;30.52;;;18.15;;
54408;SDS011;40315;48.620;9.828;2023-02-12T02:25:26;33.45;;;18.15;;
54408;SDS011;40315;48.620;9.828;2023-02-12T02:28:10;31.30;;;17.70;;
54408;SDS011;40315;48.620;9.828;2023-02-12T02:30:50;31.92;;;18.40;;
54408;SDS011;40315;48.620;9.828;2023-02-12T02:33:24;32.10;;;18.35;;
54408;SDS011;40315;48.620;9.828;2023-02-12T02:36:01;30.30;;;17.92;;
54408;SDS011;40315;48.620;9.828;2023-02-12T02:38:39;27.63;;;16.60;;
54408;SDS011;40315;48.620;9.828;2023-02-12T02:41:13;31.95;;;17.70;;
54408;SDS011;40315;48.620;9.828;2023-02-12T02:43:49;29.23;;;16.70;;
54408;SDS011;40315;48.620;9.828;2023-02-12T02:46:19;30.92;;;18.23;;
54408;SDS011;40315;48.620;9.828;2023-02-12T02:48:55;28.95;;;17.90;;
54408;SDS011;40315;48.620;9.828;2023-02-12T02:51:26;30.20;;;18.52;;
54408;SDS011;40315;48.620;9.828;2023-02-12T02:53:57;29.08;;;17.83;;
54408;SDS011;40315;48.620;9.828;2023-02-12T02:56:29;33.72;;;18.30;;
54408;SDS011;40315;48.620;9.828;2023-02-12T02:59:01;29.65;;;17.27;;
54408;SDS011;40315;48.620;9.828;2023-02-12T03:01:33;29.88;;;18.98;;
54408;SDS011;40315;48.620;9.828;2023-02-12T03:04:05;27.23;;;17.20;;
54408;SDS011;40315;48.620;9.828;2023-02-12T03:06:35;31.02;;;18.33;;
54408;SDS011;40315;48.620;9.828;2023-02-12T03:09:12;25.98;;;16.48;;
54408;SDS011;40315;48.620;9.828;2023-02-12T03:11:44;30.75;;;17.10;;
54408;SDS011;40315;48.620;9.828;2023-02-12T03:14:14;27.23;;;17.75;;
54408;SDS011;40315;48.620;9.828;2023-02-12T03:16:49;27.95;;;17.02;;
54408;SDS011;40315;48.620;9.828;2023-02-12T03:19:20;26.20;;;15.90;;
54408;SDS011;40315;48.620;9.828;2023-02-12T03:21:53;32.47;;;18.50;;
54408;SDS011;40315;48.620;9.828;2023-02-12T03:24:25;29.05;;;17.52;;
54408;SDS011;40315;48.620;9.828;2023-02-12T03:27:01;30.55;;;18.15;;
54408;SDS011;40315;48.620;9.828;2023-02-12T03:29:32;31.23;;;18.52;;
54408;SDS011;40315;48.620;9.828;2023-02-12T03:32:05;28.92;;;17.45;;
54408;SDS011;40315;48.620;9.828;2023-02-12T03:34:46;37.75;;;22.20;;
54408;SDS011;40315;48.620;9.828;2023-02-12T03:37:20;39.80;;;22.33;;
54408;SDS011;40315;48.620;9.828;2023-02-12T03:39:57;35.30;;;20.95;;
54408;SDS011;40315;48.620;9.828;2023-02-12T03:42:33;38.97;;;21.40;;
54408;SDS011;40315;48.620;9.828;2023-02-12T03:45:06;39.33;;;20.73;;
54408;SDS011;40315;48.620;9.828;2023-02-12T03:47:42;40.92;;;22.58;;
54408;SDS011;40315;48.620;9.828;2023-02-12T03:50:14;34.00;;;20.27;;
54408;SDS011;40315;48.620;9.828;2023-02-12T03:52:44;35.00;;;20.17;;
54408;SDS011;40315;48.620;9.828;2023-02-12T03:55:12;36.65;;;19.98;;
54408;SDS011;40315;48.620;9.828;2023-02-12T03:57:41;34.80;;;20.88;;
54408;SDS011;40315;48.620;9.828;2023-02-12T04:00:11;33.55;;;20.20;;
54408;SDS011;40315;48.620;9.828;2023-02-12T04:02:42;35.08;;;20.23;;
54408;SDS011;40315;48.620;9.828;2023-02-12T04:05:16;30.88;;;19.77;;
54408;SDS011;40315;48.620;9.828;2023-02-12T04:07:44;37.20;;;21.73;;
54408;SDS011;40315;48.620;9.828;2023-02-12T04:10:12;30.95;;;19.80;;
54408;SDS011;40315;48.620;9.828;2023-02-12T04:12:39;32.08;;;19.27;;
54408;SDS011;40315;48.620;9.828;2023-02-12T04:15:25;34.47;;;20.05;;
54408;SDS011;40315;48.620;9.828;2023-02-12T04:18:05;33.80;;;20.27;;
54408;SDS011;40315;48.620;9.828;2023-02-12T04:20:38;37.50;;;21.35;;
54408;SDS011;40315;48.620;9.828;2023-02-12T04:23:16;35.25;;;19.90;;
54408;SDS011;40315;48.620;9.828;2023-02-12T04:25:51;34.63;;;19.80;;
54408;SDS011;40315;48.620;9.828;2023-02-12T04:28:27;32.13;;;19.08;;
54408;SDS011;40315;48.620;9.828;2023-02-12T04:31:02;33.13;;;19.45;;
54408;SDS011;40315;48.620;9.828;2023-02-12T04:33:39;31.92;;;18.73;;
54408;SDS011;40315;48.620;9.828;2023-02-12T04:36:12;29.42;;;18.67;;
54408;SDS011;40315;48.620;9.828;2023-02-12T04:38:44;33.53;;;20.13;;
54408;SDS011;40315;48.620;9.828;2023-02-12T04:41:13;35.75;;;21.00;;
54408;SDS011;40315;48.620;9.828;2023-02-12T04:43:40;32.83;;;19.70;;
54408;SDS011;40315;48.620;9.828;2023-02-12T04:46:07;34.08;;;19.48;;
54408;SDS011;40315;48.620;9.828;2023-02-12T04:48:34;34.38;;;20.70;;
54408;SDS011;40315;48.620;9.828;2023-02-12T04:51:15;33.40;;;18.92;;
54408;SDS011;40315;48.620;9.828;2023-02-12T04:53:44;31.27;;;19.13;;
54408;SDS011;40315;48.620;9.828;2023-02-12T04:56:14;35.15;;;19.45;;
54408;SDS011;40315;48.620;9.828;2023-02-12T04:58:41;33.75;;;20.17;;
54408;SDS011;40315;48.620;9.828;2023-02-12T05:01:08;33.05;;;20.63;;
54408;SDS011;40315;48.620;9.828;2023-02-12T05:03:36;30.50;;;19.55;;
54408;SDS011;40315;48.620;9.828;2023-02-12T05:06:05;36.72;;;21.45;;
54408;SDS011;40315;48.620;9.828;2023-02-12T05:08:34;33.03;;;19.15;;
54408;SDS011;40315;48.620;9.828;2023-02-12T05:11:04;33.22;;;19.30;;
54408;SDS011;40315;48.620;9.828;2023-02-12T05:13:32;31.23;;;19.27;;
54408;SDS011;40315;48.620;9.828;2023-02-12T05:15:59;32.40;;;20.13;;
54408;SDS011;40315;48.620;9.828;2023-02-12T05:18:28;32.45;;;20.27;;
54408;SDS011;40315;48.620;9.828;2023-02-12T05:20:56;31.88;;;20.17;;
54408;SDS011;40315;48.620;9.828;2023-02-12T05:23:26;32.90;;;20.27;;
54408;SDS011;40315;48.620;9.828;2023-02-12T05:25:54;34.50;;;20.50;;
54408;SDS011;40315;48.620;9.828;2023-02-12T05:28:24;34.22;;;19.75;;
54408;SDS011;40315;48.620;9.828;2023-02-12T05:30:51;30.95;;;18.55;;
54408;SDS011;40315;48.620;9.828;2023-02-12T05:33:21;30.65;;;19.30;;
54408;SDS011;40315;48.620;9.828;2023-02-12T05:35:50;34.13;;;20.10;;
54408;SDS011;40315;48.620;9.828;2023-02-12T05:38:17;31.70;;;19.42;;
54408;SDS011;40315;48.620;9.828;2023-02-12T05:40:48;32.92;;;19.05;;
54408;SDS011;40315;48.620;9.828;2023-02-12T05:43:15;37.88;;;22.50;;
54408;SDS011;40315;48.620;9.828;2023-02-12T05:45:44;34.35;;;20.48;;
54408;SDS011;40315;48.620;9.828;2023-02-12T05:48:11;30.60;;;19.70;;
54408;SDS011;40315;48.620;9.828;2023-02-12T05:50:40;34.00;;;20.27;;
54408;SDS011;40315;48.620;9.828;2023-02-12T05:53:09;33.15;;;20.48;;
54408;SDS011;40315;48.620;9.828;2023-02-12T05:55:36;32.53;;;19.55;;
54408;SDS011;40315;48.620;9.828;2023-02-12T05:58:04;34.08;;;19.33;;
54408;SDS011;40315;48.620;9.828;2023-02-12T06:00:31;34.13;;;19.98;;
54408;SDS011;40315;48.620;9.828;2023-02-12T06:03:00;34.15;;;20.60;;
54408;SDS011;40315;48.620;9.828;2023-02-12T06:05:27;37.70;;;20.50;;
54408;SDS011;40315;48.620;9.828;2023-02-12T06:07:54;33.92;;;21.00;;
54408;SDS011;40315;48.620;9.828;2023-02-12T06:10:23;39.08;;;22.08;;
54408;SDS011;40315;48.620;9.828;2023-02-12T06:12:52;38.05;;;21.92;;
54408;SDS011;40315;48.620;9.828;2023-02-12T06:15:21;39.17;;;22.20;;
54408;SDS011;40315;48.620;9.828;2023-02-12T06:17:50;36.38;;;21.38;;
54408;SDS011;40315;48.620;9.828;2023-02-12T06:20:17;37.05;;;21.60;;
54408;SDS011;40315;48.620;9.828;2023-02-12T06:22:44;34.67;;;21.02;;
54408;SDS011;40315;48.620;9.828;2023-02-12T06:25:11;36.15;;;20.63;;
54408;SDS011;40315;48.620;9.828;2023-02-12T06:27:37;36.08;;;20.85;;
54408;SDS011;40315;48.620;9.828;2023-02-12T06:30:05;36.05;;;19.75;;
54408;SDS011;40315;48.620;9.828;2023-02-12T06:32:36;31.95;;;19.60;;
54408;SDS011;40315;48.620;9.828;2023-02-12T06:35:03;32.80;;;20.10;;
54408;SDS011;40315;48.620;9.828;2023-02-12T06:37:31;35.65;;;20.17;;
54408;SDS011;40315;48.620;9.828;2023-02-12T06:40:01;33.90;;;20.33;;
54408;SDS011;40315;48.620;9.828;2023-02-12T06:42:28;31.95;;;19.05;;
54408;SDS011;40315;48.620;9.828;2023-02-12T06:44:55;33.30;;;19.13;;
54408;SDS011;40315;48.620;9.828;2023-02-12T06:47:22;33.67;;;19.80;;
54408;SDS011;40315;48.620;9.828;2023-02-12T06:49:50;32.53;;;19.20;;
54408;SDS011;40315;48.620;9.828;2023-02-12T06:52:19;34.38;;;19.63;;
54408;SDS011;40315;48.620;9.828;2023-02-12T06:54:49;35.05;;;20.75;;
54408;SDS011;40315;48.620;9.828;2023-02-12T06:57:16;34.38;;;20.02;;
54408;SDS011;40315;48.620;9.828;2023-02-12T06:59:42;31.67;;;20.05;;
54408;SDS011;40315;48.620;9.828;2023-02-12T07:02:09;31.67;;;19.77;;
54408;SDS011;40315;48.620;9.828;2023-02-12T07:04:37;39.90;;;22.13;;
54408;SDS011;40315;48.620;9.828;2023-02-12T07:07:05;41.63;;;22.98;;
54408;SDS011;40315;48.620;9.828;2023-02-12T07:09:32;39.17;;;23.02;;
54408;SDS011;40315;48.620;9.828;2023-02-12T07:11:59;37.55;;;24.08;;
54408;SDS011;40315;48.620;9.828;2023-02-12T07:14:31;40.50;;;22.67;;
54408;SDS011;40315;48.620;9.828;2023-02-12T07:16:59;41.03;;;24.20;;
54408;SDS011;40315;48.620;9.828;2023-02-12T07:19:27;38.58;;;23.40;;
54408;SDS011;40315;48.620;9.828;2023-02-12T07:21:57;35.65;;;23.30;;
54408;SDS011;40315;48.620;9.828;2023-02-12T07:24:27;37.83;;;22.23;;
54408;SDS011;40315;48.620;9.828;2023-02-12T07:26:54;37.90;;;22.92;;
54408;SDS011;40315;48.620;9.828;2023-02-12T07:29:21;38.15;;;22.15;;
54408;SDS011;40315;48.620;9.828;2023-02-12T07:31:48;36.58;;;22.40;;
54408;SDS011;40315;48.620;9.828;2023-02-12T07:34:15;36.13;;;21.83;;
54408;SDS011;40315;48.620;9.828;2023-02-12T07:36:42;39.00;;;22.02;;
54408;SDS011;40315;48.620;9.828;2023-02-12T07:39:10;37.90;;;20.98;;
54408;SDS011;40315;48.620;9.828;2023-02-12T07:41:39;37.97;;;22.08;;
54408;SDS011;40315;48.620;9.828;2023-02-12T07:44:09;36.58;;;22.02;;
54408;SDS011;40315;48.620;9.828;2023-02-12T07:46:38;39.17;;;23.35;;
54408;SDS011;40315;48.620;9.828;2023-02-12T07:49:07;37.03;;;22.65;;
54408;SDS011;40315;48.620;9.828;2023-02-12T07:51:38;40.10;;;23.30;;
54408;SDS011;40315;48.620;9.828;2023-02-12T07:54:05;39.35;;;22.55;;
54408;SDS011;40315;48.620;9.828;2023-02-12T07:56:33;40.20;;;23.48;;
54408;SDS011;40315;48.620;9.828;2023-02-12T07:59:03;42.38;;;22.40;;
54408;SDS011;40315;48.620;9.828;2023-02-12T08:01:32;42.53;;;23.08;;
54408;SDS011;40315;48.620;9.828;2023-02-12T08:04:01;39.38;;;22.60;;
54408;SDS011;40315;48.620;9.828;2023-02-12T08:06:30;38.97;;;23.27;;
54408;SDS011;40315;48.620;9.828;2023-02-12T08:09:00;35.20;;;21.58;;
54408;SDS011;40315;48.620;9.828;2023-02-12T08:11:29;39.33;;;22.60;;
54408;SDS011;40315;48.620;9.828;2023-02-12T08:13:57;38.22;;;22.15;;
54408;SDS011;40315;48.620;9.828;2023-02-12T08:16:27;35.65;;;21.13;;
54408;SDS011;40315;48.620;9.828;2023-02-12T08:18:54;38.67;;;21.05;;
54408;SDS011;40315;48.620;9.828;2023-02-12T08:21:23;39.90;;;20.90;;
54408;SDS011;40315;48.620;9.828;2023-02-12T08:23:52;34.28;;;20.00;;
54408;SDS011;40315;48.620;9.828;2023-02-12T08:26:20;35.40;;;19.17;;
54408;SDS011;40315;48.620;9.828;2023-02-12T08:28:49;35.42;;;18.52;;
54408;SDS011;40315;48.620;9.828;2023-02-12T08:31:19;29.70;;;16.60;;
54408;SDS011;40315;48.620;9.828;2023-02-12T08:33:48;25.52;;;13.70;;
54408;SDS011;40315;48.620;9.828;2023-02-12T08:36:17;25.52;;;13.65;;
54408;SDS011;40315;48.620;9.828;2023-02-12T08:38:47;25.15;;;14.45;;
54408;SDS011;40315;48.620;9.828;2023-02-12T08:41:18;31.85;;;16.05;;
54408;SDS011;40315;48.620;9.828;2023-02-12T08:43:48;27.73;;;14.65;;
54408;SDS011;40315;48.620;9.828;2023-02-12T08:46:17;27.00;;;14.50;;
54408;SDS011;40315;48.620;9.828;2023-02-12T08:48:50;25.45;;;14.40;;
54408;SDS011;40315;48.620;9.828;2023-02-12T08:51:21;24.48;;;13.07;;
54408;SDS011;40315;48.620;9.828;2023-02-12T08:53:50;24.98;;;13.93;;
54408;SDS011;40315;48.620;9.828;2023-02-12T08:56:18;25.40;;;14.45;;
54408;SDS011;40315;48.620;9.828;2023-02-12T08:58:46;27.65;;;14.40;;
54408;SDS011;40315;48.620;9.828;2023-02-12T09:01:14;27.00;;;14.38;;
54408;SDS011;40315;48.620;9.828;2023-02-12T09:03:42;24.20;;;12.88;;
54408;SDS011;40315;48.620;9.828;2023-02-12T09:06:14;25.83;;;13.65;;
54408;SDS011;40315;48.620;9.828;2023-02-12T09:08:46;22.98;;;12.98;;
54408;SDS011;40315;48.620;9.828;2023-02-12T09:11:14;19.77;;;11.43;;
54408;SDS011;40315;48.620;9.828;2023-02-12T09:13:42;22.83;;;13.05;;
54408;SDS011;40315;48.620;9.828;2023-02-12T09:16:11;25.52;;;13.13;;
54408;SDS011;40315;48.620;9.828;2023-02-12T09:18:41;20.02;;;11.18;;
54408;SDS011;40315;48.620;9.828;2023-02-12T09:21:09;16.55;;;9.60;;
54408;SDS011;40315;48.620;9.828;2023-02-12T09:23:39;18.33;;;10.30;;
54408;SDS011;40315;48.620;9.828;2023-02-12T09:26:07;18.88;;;10.25;;
54408;SDS011;40315;48.620;9.828;2023-02-12T09:28:36;18.23;;;10.15;;
54408;SDS011;40315;48.620;9.828;2023-02-12T09:31:04;18.40;;;9.85;;
54408;SDS011;40315;48.620;9.828;2023-02-12T09:33:31;17.58;;;9.00;;
54408;SDS011;40315;48.620;9.828;2023-02-12T09:36:00;16.63;;;8.55;;
54408;SDS011;40315;48.620;9.828;2023-02-12T09:38:28;13.82;;;7.32;;
54408;SDS011;40315;48.620;9.828;2023-02-12T09:41:03;12.30;;;6.78;;
54408;SDS011;40315;48.620;9.828;2023-02-12T09:43:52;8.52;;;5.25;;
54408;SDS011;40315;48.620;9.828;2023-02-12T09:46:26;10.82;;;5.90;;
54408;SDS011;40315;48.620;9.828;2023-02-12T09:49:00;8.32;;;5.13;;
54408;SDS011;40315;48.620;9.828;2023-02-12T09:51:34;10.57;;;5.95;;
54408;SDS011;40315;48.620;9.828;2023-02-12T09:54:04;8.32;;;4.85;;
54408;SDS011;40315;48.620;9.828;2023-02-12T09:56:34;5.78;;;3.45;;
54408;SDS011;40315;48.620;9.828;2023-02-12T09:59:04;3.42;;;2.38;;
54408;SDS011;40315;48.620;9.828;2023-02-12T10:01:33;5.78;;;3.53;;
54408;SDS011;40315;48.620;9.828;2023-02-12T10:04:00;4.03;;;2.65;;
54408;SDS011;40315;48.620;9.828;2023-02-12T10:06:32;4.90;;;3.03;;
54408;SDS011;40315;48.620;9.828;2023-02-12T10:09:21;5.93;;;3.13;;
54408;SDS011;40315;48.620;9.828;2023-02-12T10:12:05;5.80;;;3.15;;
54408;SDS011;40315;48.620;9.828;2023-02-12T10:17:41;5.13;;;2.65;;
54408;SDS011;40315;48.620;9.828;2023-02-12T10:20:20;4.53;;;2.97;;
54408;SDS011;40315;48.620;9.828;2023-02-12T10:23:21;8.13;;;4.53;;
54408;SDS011;40315;48.620;9.828;2023-02-12T10:25:56;6.95;;;4.38;;
54408;SDS011;40315;48.620;9.828;2023-02-12T10:28:27;6.40;;;3.92;;
54408;SDS011;40315;48.620;9.828;2023-02-12T10:31:00;5.72;;;3.60;;
54408;SDS011;40315;48.620;9.828;2023-02-12T10:33:34;6.03;;;3.55;;
54408;SDS011;40315;48.620;9.828;2023-02-12T10:36:11;6.05;;;3.83;;
54408;SDS011;40315;48.620;9.828;2023-02-12T10:38:44;5.72;;;3.10;;
54408;SDS011;40315;48.620;9.828;2023-02-12T10:41:18;6.60;;;3.95;;
54408;SDS011;40315;48.620;9.828;2023-02-12T10:43:49;5.68;;;3.50;;
54408;SDS011;40315;48.620;9.828;2023-02-12T10:46:16;5.00;;;3.10;;
54408;SDS011;40315;48.620;9.828;2023-02-12T10:48:44;5.18;;;3.53;;
54408;SDS011;40315;48.620;9.828;2023-02-12T10:51:22;5.28;;;3.10;;
54408;SDS011;40315;48.620;9.828;2023-02-12T10:56:57;4.93;;;3.13;;
54408;SDS011;40315;48.620;9.828;2023-02-12T10:59:26;6.35;;;3.95;;
54408;SDS011;40315;48.620;9.828;2023-02-12T11:01:54;5.43;;;3.58;;
54408;SDS011;40315;48.620;9.828;2023-02-12T11:04:23;5.88;;;3.70;;
54408;SDS011;40315;48.620;9.828;2023-02-12T11:06:57;6.45;;;4.10;;
54408;SDS011;40315;48.620;9.828;2023-02-12T11:09:26;5.40;;;3.65;;
54408;SDS011;40315;48.620;9.828;2023-02-12T11:11:55;7.10;;;4.25;;
54408;SDS011;40315;48.620;9.828;2023-02-12T11:14:23;6.20;;;3.92;;
54408;SDS011;40315;48.620;9.828;2023-02-12T11:16:54;6.47;;;4.13;;
54408;SDS011;40315;48.620;9.828;2023-02-12T11:19:23;7.25;;;3.72;;
54408;SDS011;40315;48.620;9.828;2023-02-12T11:21:52;7.20;;;4.15;;
54408;SDS011;40315;48.620;9.828;2023-02-12T11:24:31;5.13;;;3.40;;
54408;SDS011;40315;48.620;9.828;2023-02-12T11:27:22;5.50;;;3.63;;
54408;SDS011;40315;48.620;9.828;2023-02-12T11:32:41;5.68;;;3.28;;
54408;SDS011;40315;48.620;9.828;2023-02-12T11:35:11;6.78;;;3.72;;
54408;SDS011;40315;48.620;9.828;2023-02-12T11:37:48;7.75;;;4.22;;
54408;SDS011;40315;48.620;9.828;2023-02-12T11:40:18;7.40;;;4.72;;
54408;SDS011;40315;48.620;9.828;2023-02-12T11:42:50;6.90;;;4.63;;
54408;SDS011;40315;48.620;9.828;2023-02-12T11:45:20;7.72;;;4.28;;
54408;SDS011;40315;48.620;9.828;2023-02-12T11:47:53;6.53;;;4.22;;
54408;SDS011;40315;48.620;9.828;2023-02-12T11:50:23;4.05;;;3.10;;
54408;SDS011;40315;48.620;9.828;2023-02-12T11:52:52;5.63;;;2.92;;
54408;SDS011;40315;48.620;9.828;2023-02-12T11:55:23;4.35;;;3.15;;
54408;SDS011;40315;48.620;9.828;2023-02-12T11:57:52;6.47;;;3.53;;
54408;SDS011;40315;48.620;9.828;2023-02-12T12:00:21;6.07;;;3.58;;
54408;SDS011;40315;48.620;9.828;2023-02-12T12:02:57;5.18;;;3.60;;
54408;SDS011;40315;48.620;9.828;2023-02-12T12:05:28;6.47;;;3.75;;
54408;SDS011;40315;48.620;9.828;2023-02-12T12:08:04;5.32;;;3.70;;
54408;SDS011;40315;48.620;9.828;2023-02-12T12:10:38;5.45;;;3.78;;
54408;SDS011;40315;48.620;9.828;2023-02-12T12:13:10;6.30;;;4.30;;
54408;SDS011;40315;48.620;9.828;2023-02-12T12:15:42;5.20;;;3.65;;
54408;SDS011;40315;48.620;9.828;2023-02-12T12:18:31;6.03;;;3.63;;
54408;SDS011;40315;48.620;9.828;2023-02-12T12:21:22;6.72;;;4.03;;
54408;SDS011;40315;48.620;9.828;2023-02-12T12:23:55;6.55;;;4.63;;
54408;SDS011;40315;48.620;9.828;2023-02-12T12:26:30;6.72;;;4.72;;
54408;SDS011;40315;48.620;9.828;2023-02-12T12:29:00;6.43;;;4.50;;
54408;SDS011;40315;48.620;9.828;2023-02-12T12:31:32;6.75;;;4.30;;
54408;SDS011;40315;48.620;9.828;2023-02-12T12:34:04;5.78;;;3.97;;
54408;SDS011;40315;48.620;9.828;2023-02-12T12:36:48;7.70;;;4.90;;
54408;SDS011;40315;48.620;9.828;2023-02-12T12:39:43;7.70;;;4.63;;
54408;SDS011;40315;48.620;9.828;2023-02-12T12:42:32;7.32;;;5.18;;
54408;SDS011;40315;48.620;9.828;2023-02-12T12:45:28;6.55;;;3.85;;
54408;SDS011;40315;48.620;9.828;2023-02-12T12:48:31;6.18;;;4.05;;
54408;SDS011;40315;48.620;9.828;2023-02-12T12:51:18;5.47;;;3.85;;
54408;SDS011;40315;48.620;9.828;2023-02-12T12:53:58;5.45;;;4.35;;
54408;SDS011;40315;48.620;9.828;2023-02-12T12:56:44;5.93;;;3.97;;
54408;SDS011;40315;48.620;9.828;2023-02-12T13:05:30;4.82;;;3.45;;
54408;SDS011;40315;48.620;9.828;2023-02-12T13:08:20;4.38;;;3.80;;
54408;SDS011;40315;48.620;9.828;2023-02-12T13:11:03;4.13;;;2.92;;
54408;SDS011;40315;48.620;9.828;2023-02-12T13:13:40;3.80;;;3.08;;
54408;SDS011;40315;48.620;9.828;2023-02-12T13:16:11;5.47;;;3.70;;
54408;SDS011;40315;48.620;9.828;2023-02-12T13:18:46;5.13;;;3.03;;
54408;SDS011;40315;48.620;9.828;2023-02-12T13:21:22;9.00;;;7.47;;
54408;SDS011;40315;48.620;9.828;2023-02-12T13:23:59;10.52;;;9.43;;
54408;SDS011;40315;48.620;9.828;2023-02-12T13:26:36;6.03;;;4.95;;
54408;SDS011;40315;48.620;9.828;2023-02-12T13:29:15;4.05;;;2.95;;
54408;SDS011;40315;48.620;9.828;2023-02-12T13:31:48;6.35;;;4.18;;
54408;SDS011;40315;48.620;9.828;2023-02-12T13:34:19;4.97;;;2.90;;
54408;SDS011;40315;48.620;9.828;2023-02-12T13:36:49;4.88;;;3.72;;
54408;SDS011;40315;48.620;9.828;2023-02-12T13:39:23;7.07;;;5.30;;
54408;SDS011;40315;48.620;9.828;2023-02-12T13:41:57;6.10;;;4.15;;
54408;SDS011;40315;48.620;9.828;2023-02-12T13:44:37;5.55;;;3.42;;
54408;SDS011;40315;48.620;9.828;2023-02-12T13:47:14;5.53;;;3.70;;
54408;SDS011;40315;48.620;9.828;2023-02-12T13:49:52;7.05;;;4.10;;
54408;SDS011;40315;48.620;9.828;2023-02-12T13:52:27;6.45;;;4.00;;
54408;SDS011;40315;48.620;9.828;2023-02-12T13:55:13;6.55;;;4.43;;
54408;SDS011;40315;48.620;9.828;2023-02-12T14:01:02;6.80;;;4.07;;
54408;SDS011;40315;48.620;9.828;2023-02-12T14:03:31;5.55;;;3.80;;
54408;SDS011;40315;48.620;9.828;2023-02-12T14:06:10;7.35;;;4.30;;
54408;SDS011;40315;48.620;9.828;2023-02-12T14:08:40;6.85;;;4.10;;
54408;SDS011;40315;48.620;9.828;2023-02-12T14:11:11;7.10;;;3.83;;
54408;SDS011;40315;48.620;9.828;2023-02-12T14:13:53;6.03;;;3.90;;
54408;SDS011;40315;48.620;9.828;2023-02-12T14:16:38;5.55;;;3.92;;
54408;SDS011;40315;48.620;9.828;2023-02-12T14:22:12;8.38;;;5.05;;
54408;SDS011;40315;48.620;9.828;2023-02-12T14:25:01;5.82;;;3.95;;
54408;SDS011;40315;48.620;9.828;2023-02-12T14:27:52;6.82;;;4.25;;
54408;SDS011;40315;48.620;9.828;2023-02-12T14:30:23;7.28;;;4.32;;
54408;SDS011;40315;48.620;9.828;2023-02-12T14:35:48;6.10;;;4.20;;
54408;SDS011;40315;48.620;9.828;2023-02-12T14:39:07;5.82;;;3.72;;
54408;SDS011;40315;48.620;9.828;2023-02-12T14:41:55;5.32;;;3.90;;
54408;SDS011;40315;48.620;9.828;2023-02-12T14:45:21;6.88;;;3.80;;
54408;SDS011;40315;48.620;9.828;2023-02-12T14:47:53;7.65;;;4.68;;
54408;SDS011;40315;48.620;9.828;2023-02-12T14:50:21;7.82;;;4.60;;
54408;SDS011;40315;48.620;9.828;2023-02-12T14:52:52;7.32;;;4.35;;
54408;SDS011;40315;48.620;9.828;2023-02-12T14:55:26;7.55;;;4.50;;
54408;SDS011;40315;48.620;9.828;2023-02-12T14:58:01;7.57;;;4.40;;
54408;SDS011;40315;48.620;9.828;2023-02-12T15:00:34;8.23;;;4.68;;
54408;SDS011;40315;48.620;9.828;2023-02-12T15:03:08;7.07;;;4.55;;
54408;SDS011;40315;48.620;9.828;2023-02-12T15:05:51;7.63;;;4.88;;
54408;SDS011;40315;48.620;9.828;2023-02-12T15:11:12;8.15;;;5.00;;
54408;SDS011;40315;48.620;9.828;2023-02-12T15:13:48;5.93;;;4.13;;
54408;SDS011;40315;48.620;9.828;2023-02-12T15:16:26;6.07;;;4.15;;
54408;SDS011;40315;48.620;9.828;2023-02-12T15:19:01;6.28;;;3.72;;
54408;SDS011;40315;48.620;9.828;2023-02-12T15:21:36;6.65;;;3.72;;
54408;SDS011;40315;48.620;9.828;2023-02-12T15:24:04;6.15;;;3.85;;
54408;SDS011;40315;48.620;9.828;2023-02-12T15:26:33;6.03;;;3.95;;
54408;SDS011;40315;48.620;9.828;2023-02-12T15:29:02;7.50;;;5.00;;
54408;SDS011;40315;48.620;9.828;2023-02-12T15:31:31;7.10;;;4.60;;
54408;SDS011;40315;48.620;9.828;2023-02-12T15:34:00;7.30;;;4.68;;